Time;durP1;ratioP1;P1;durP2;ratioP2;P2;SDS_P1;SDS_P2;PMS_P1;PMS_P2;Temp;Humidity;BMP_temperature;BMP_pressure;BME280_temperature;BME280_humidity;BME280_pressure;Samples;Min_cycle;Max_cycle;Signal;HPM_P1;HPM_P2
2022/05/22 00:00:01;;;;;;;4.22;1.55;;;;;;;;;;4857904;29;20112;-67
2022/05/22 00:02:27;;;;;;;2.72;1.80;;;;;;;;;;4857379;29;20030;-63
2022/05/22 00:04:53;;;;;;;6.32;1.77;;;;;;;;;;4857119;29;20112;-69
2022/05/22 00:07:20;;;;;;;4.47;1.55;;;;;;;;;;4857772;29;20060;-69
2022/05/22 00:09:46;;;;;;;4.72;1.80;;;;;;;;;;4857747;29;20393;-70
2022/05/22 00:12:14;;;;;;;4.97;1.80;;;;;;;;;;4858505;29;20065;-60
2022/05/22 00:14:40;;;;;;;5.95;1.90;;;;;;;;;;4858087;29;20050;-60
2022/05/22 00:17:09;;;;;;;4.18;1.80;;;;;;;;;;4843538;29;20485;-64
2022/05/22 00:19:36;;;;;;;7.93;2.20;;;;;;;;;;4861946;29;20466;-61
2022/05/22 00:22:02;;;;;;;4.97;1.70;;;;;;;;;;4861660;29;20030;-68
2022/05/22 00:24:30;;;;;;;6.45;2.47;;;;;;;;;;4861911;29;20033;-66
2022/05/22 00:26:56;;;;;;;5.68;2.10;;;;;;;;;;4861766;29;20476;-68
2022/05/22 00:29:22;;;;;;;6.43;1.88;;;;;;;;;;4862117;29;20036;-69
2022/05/22 00:31:48;;;;;;;4.53;1.70;;;;;;;;;;4861341;29;20038;-65
2022/05/22 00:34:15;;;;;;;4.10;1.70;;;;;;;;;;4861232;29;20033;-69
2022/05/22 00:36:41;;;;;;;2.80;1.80;;;;;;;;;;4861287;29;20036;-67
2022/05/22 00:39:07;;;;;;;3.67;1.95;;;;;;;;;;4861488;29;20544;-68
2022/05/22 00:41:33;;;;;;;5.72;1.80;;;;;;;;;;4861558;29;20405;-69
2022/05/22 00:44:00;;;;;;;6.60;2.00;;;;;;;;;;4861430;29;20040;-62
2022/05/22 00:46:26;;;;;;;5.55;1.80;;;;;;;;;;4861521;29;20041;-64
2022/05/22 00:48:59;;;;;;;8.10;2.40;;;;;;;;;;4861856;29;20588;-69
2022/05/22 00:51:37;;;;;;;3.55;2.05;;;;;;;;;;4861443;29;20050;-69
2022/05/22 00:54:10;;;;;;;4.28;2.08;;;;;;;;;;4861385;29;20030;-68
2022/05/22 00:56:38;;;;;;;5.55;1.80;;;;;;;;;;4861696;29;20041;-69
2022/05/22 00:59:21;;;;;;;6.30;1.90;;;;;;;;;;4861619;29;20086;-61
2022/05/22 01:01:48;;;;;;;3.83;1.92;;;;;;;;;;4861283;29;20030;-68
2022/05/22 01:04:16;;;;;;;5.80;2.20;;;;;;;;;;4861536;29;20414;-65
2022/05/22 01:06:43;;;;;;;2.88;1.70;;;;;;;;;;4861362;29;20322;-62
2022/05/22 01:09:09;;;;;;;4.95;2.15;;;;;;;;;;4861802;29;20131;-60
2022/05/22 01:11:36;;;;;;;5.90;2.30;;;;;;;;;;4861390;29;20144;-59
2022/05/22 01:14:14;;;;;;;6.00;1.90;;;;;;;;;;4861492;29;20390;-65
2022/05/22 01:16:40;;;;;;;5.95;2.20;;;;;;;;;;4861303;29;20041;-66
2022/05/22 01:19:15;;;;;;;5.28;2.40;;;;;;;;;;4861247;29;20029;-67
2022/05/22 01:21:41;;;;;;;3.95;2.17;;;;;;;;;;4861099;29;20109;-67
2022/05/22 01:24:08;;;;;;;3.92;2.30;;;;;;;;;;4861176;29;20475;-68
2022/05/22 01:26:34;;;;;;;3.00;1.85;;;;;;;;;;4861097;29;20073;-64
2022/05/22 01:29:00;;;;;;;5.32;2.00;;;;;;;;;;4860124;29;20026;-65
2022/05/22 01:31:27;;;;;;;5.07;1.90;;;;;;;;;;4860855;29;20041;-60
2022/05/22 01:33:53;;;;;;;3.45;1.63;;;;;;;;;;4860658;29;20068;-60
2022/05/22 01:36:19;;;;;;;3.95;1.92;;;;;;;;;;4861026;29;20086;-60
2022/05/22 01:38:45;;;;;;;4.88;2.50;;;;;;;;;;4843452;29;20549;-60
2022/05/22 01:41:11;;;;;;;4.18;2.17;;;;;;;;;;4860977;29;20454;-61
2022/05/22 01:43:37;;;;;;;5.40;2.13;;;;;;;;;;4860698;29;20062;-67
2022/05/22 01:46:03;;;;;;;5.75;2.30;;;;;;;;;;4860611;29;20046;-62
2022/05/22 01:48:30;;;;;;;5.28;2.38;;;;;;;;;;4860505;29;20025;-63
2022/05/22 01:50:56;;;;;;;3.97;1.92;;;;;;;;;;4860466;29;20110;-66
2022/05/22 01:53:22;;;;;;;4.13;2.10;;;;;;;;;;4860282;29;20026;-69
2022/05/22 01:55:50;;;;;;;4.70;2.17;;;;;;;;;;4860473;29;20041;-69
2022/05/22 01:58:16;;;;;;;4.63;2.58;;;;;;;;;;4859984;29;20538;-66
2022/05/22 02:00:42;;;;;;;5.53;2.40;;;;;;;;;;4843954;29;20202;-60
2022/05/22 02:03:08;;;;;;;6.18;2.67;;;;;;;;;;4861925;29;20046;-59
2022/05/22 02:05:34;;;;;;;4.63;2.25;;;;;;;;;;4861824;29;20025;-59
2022/05/22 02:08:19;;;;;;;5.25;2.50;;;;;;;;;;4860090;29;20026;-60
2022/05/22 02:10:46;;;;;;;8.05;2.80;;;;;;;;;;4860264;29;20033;-68
2022/05/22 02:13:12;;;;;;;6.57;2.78;;;;;;;;;;4859920;29;20033;-59
2022/05/22 02:15:38;;;;;;;5.30;2.88;;;;;;;;;;4860050;29;20051;-59
2022/05/22 02:18:04;;;;;;;5.72;2.70;;;;;;;;;;4859950;29;20042;-66
2022/05/22 02:20:30;;;;;;;4.20;2.97;;;;;;;;;;4860057;29;20041;-59
2022/05/22 02:22:57;;;;;;;5.88;2.70;;;;;;;;;;4860120;29;20418;-60
2022/05/22 02:25:23;;;;;;;5.35;2.85;;;;;;;;;;4860160;29;20033;-58
2022/05/22 02:27:49;;;;;;;5.47;2.45;;;;;;;;;;4859907;29;20089;-61
2022/05/22 02:30:17;;;;;;;5.45;2.55;;;;;;;;;;4859812;29;20033;-58
2022/05/22 02:32:43;;;;;;;9.23;3.45;;;;;;;;;;4859780;29;20041;-59
2022/05/22 02:35:10;;;;;;;6.03;2.80;;;;;;;;;;4859564;29;20041;-63
2022/05/22 02:37:43;;;;;;;5.47;2.80;;;;;;;;;;4859686;29;20389;-58
2022/05/22 02:40:09;;;;;;;6.47;2.90;;;;;;;;;;4859995;29;20041;-58
2022/05/22 02:42:38;;;;;;;6.03;3.17;;;;;;;;;;4859859;29;20048;-59
2022/05/22 02:45:05;;;;;;;6.18;2.88;;;;;;;;;;4859763;29;20030;-58
2022/05/22 02:47:33;;;;;;;4.43;2.58;;;;;;;;;;4859516;29;20053;-59
2022/05/22 02:49:59;;;;;;;6.32;2.88;;;;;;;;;;4859575;29;20061;-68
2022/05/22 02:52:25;;;;;;;5.28;2.95;;;;;;;;;;4859386;29;20124;-68
2022/05/22 02:54:51;;;;;;;4.40;2.80;;;;;;;;;;4859855;29;20033;-61
2022/05/22 02:57:21;;;;;;;3.55;2.70;;;;;;;;;;4859572;29;20033;-69
2022/05/22 02:59:48;;;;;;;4.85;3.25;;;;;;;;;;4859684;29;20028;-65
2022/05/22 03:02:14;;;;;;;4.32;2.85;;;;;;;;;;4859349;29;20758;-60
2022/05/22 03:04:40;;;;;;;6.35;3.50;;;;;;;;;;4859399;29;20025;-62
2022/05/22 03:07:07;;;;;;;5.25;3.20;;;;;;;;;;4859266;29;20122;-63
2022/05/22 03:09:33;;;;;;;4.95;3.00;;;;;;;;;;4859170;29;20061;-62
2022/05/22 03:12:04;;;;;;;5.00;3.10;;;;;;;;;;4858856;29;20037;-61
2022/05/22 03:14:30;;;;;;;5.22;3.42;;;;;;;;;;4858792;29;20034;-60
2022/05/22 03:16:56;;;;;;;5.65;3.28;;;;;;;;;;4858857;29;20136;-60
2022/05/22 03:19:22;;;;;;;7.88;3.40;;;;;;;;;;4859017;29;20398;-61
2022/05/22 03:21:48;;;;;;;5.55;3.30;;;;;;;;;;4858611;29;20547;-60
2022/05/22 03:24:14;;;;;;;6.43;3.50;;;;;;;;;;4858902;29;20570;-62
2022/05/22 03:26:40;;;;;;;7.15;3.28;;;;;;;;;;4858477;29;20455;-66
2022/05/22 03:29:07;;;;;;;5.10;3.38;;;;;;;;;;4858797;29;20037;-66
2022/05/22 03:31:33;;;;;;;6.15;3.25;;;;;;;;;;4858564;29;20038;-61
2022/05/22 03:33:59;;;;;;;6.50;3.22;;;;;;;;;;4858689;29;20158;-60
2022/05/22 03:36:25;;;;;;;6.32;3.08;;;;;;;;;;4858671;29;20066;-69
2022/05/22 03:38:51;;;;;;;9.85;3.30;;;;;;;;;;4858658;29;20033;-60
2022/05/22 03:41:17;;;;;;;4.97;3.33;;;;;;;;;;4858497;29;20092;-60
2022/05/22 03:43:43;;;;;;;9.40;3.95;;;;;;;;;;4858580;29;20064;-61
2022/05/22 03:46:09;;;;;;;5.68;3.42;;;;;;;;;;4858569;29;20060;-60
2022/05/22 03:48:35;;;;;;;6.45;3.72;;;;;;;;;;4858773;29;20099;-60
2022/05/22 03:51:01;;;;;;;4.65;3.25;;;;;;;;;;4858380;29;20037;-61
2022/05/22 03:53:27;;;;;;;6.93;3.85;;;;;;;;;;4858810;29;20065;-68
2022/05/22 03:55:53;;;;;;;9.57;4.03;;;;;;;;;;4858606;29;20029;-61
2022/05/22 03:58:19;;;;;;;7.75;3.75;;;;;;;;;;4858834;29;20033;-63
2022/05/22 04:00:46;;;;;;;6.57;3.53;;;;;;;;;;4858729;29;20089;-60
2022/05/22 04:03:12;;;;;;;5.53;3.67;;;;;;;;;;4858564;29;20034;-61
2022/05/22 04:05:38;;;;;;;5.82;3.70;;;;;;;;;;4858845;29;20088;-61
2022/05/22 04:08:05;;;;;;;5.43;3.60;;;;;;;;;;4858582;29;20033;-62
2022/05/22 04:10:31;;;;;;;5.40;3.60;;;;;;;;;;4858544;29;20029;-61
2022/05/22 04:12:57;;;;;;;5.45;3.97;;;;;;;;;;4858484;29;20042;-59
2022/05/22 04:15:23;;;;;;;7.18;4.35;;;;;;;;;;4858429;29;20063;-63
2022/05/22 04:17:49;;;;;;;6.00;3.45;;;;;;;;;;4841166;29;20052;-61
2022/05/22 04:20:18;;;;;;;7.43;3.42;;;;;;;;;;4858380;29;20033;-68
2022/05/22 04:25:29;;;;;;;6.88;3.88;;;;;;;;;;4858326;29;20036;-60
2022/05/22 04:27:55;;;;;;;5.18;3.08;;;;;;;;;;4858504;29;20382;-61
2022/05/22 04:30:22;;;;;;;4.25;2.80;;;;;;;;;;4858225;29;20112;-60
2022/05/22 04:32:49;;;;;;;6.55;2.95;;;;;;;;;;4858436;29;20050;-60
2022/05/22 04:35:15;;;;;;;6.30;3.03;;;;;;;;;;4858271;29;20032;-60
2022/05/22 04:37:41;;;;;;;5.68;2.70;;;;;;;;;;4858204;29;20362;-60
2022/05/22 04:40:08;;;;;;;3.60;2.70;;;;;;;;;;4841566;29;20040;-60
2022/05/22 04:42:35;;;;;;;4.35;2.55;;;;;;;;;;4858256;29;20442;-60
2022/05/22 04:45:02;;;;;;;3.53;2.60;;;;;;;;;;4858109;29;20037;-60
2022/05/22 04:47:28;;;;;;;6.32;3.03;;;;;;;;;;4858085;29;20037;-62
2022/05/22 04:49:54;;;;;;;4.30;2.58;;;;;;;;;;4857835;29;20485;-58
2022/05/22 04:52:20;;;;;;;5.53;2.63;;;;;;;;;;4857658;29;20093;-57
2022/05/22 04:54:47;;;;;;;3.40;2.40;;;;;;;;;;4857753;29;20416;-58
2022/05/22 04:57:13;;;;;;;5.00;2.58;;;;;;;;;;4857888;29;20072;-58
2022/05/22 04:59:39;;;;;;;4.40;2.90;;;;;;;;;;4857685;29;20025;-58
2022/05/22 05:02:05;;;;;;;7.30;3.83;;;;;;;;;;4857836;29;20038;-60
2022/05/22 05:04:31;;;;;;;7.50;3.45;;;;;;;;;;4860906;29;20069;-58
2022/05/22 05:06:58;;;;;;;5.88;3.72;;;;;;;;;;4861012;29;20037;-58
2022/05/22 05:09:24;;;;;;;4.43;3.28;;;;;;;;;;4861343;29;20026;-57
2022/05/22 05:11:50;;;;;;;5.45;2.85;;;;;;;;;;4861286;29;20102;-57
2022/05/22 05:14:16;;;;;;;4.43;3.00;;;;;;;;;;4860943;29;20067;-59
2022/05/22 05:16:42;;;;;;;4.05;2.10;;;;;;;;;;4861191;29;20053;-57
2022/05/22 05:19:08;;;;;;;7.55;3.50;;;;;;;;;;4861091;29;20025;-57
2022/05/22 05:21:34;;;;;;;6.05;2.35;;;;;;;;;;4861021;29;20087;-60
2022/05/22 05:24:00;;;;;;;3.97;3.00;;;;;;;;;;4861295;29;20029;-58
2022/05/22 05:26:27;;;;;;;6.68;2.72;;;;;;;;;;4861111;29;20029;-59
2022/05/22 05:28:53;;;;;;;3.00;2.20;;;;;;;;;;4860818;29;20074;-58
2022/05/22 05:31:19;;;;;;;5.63;3.03;;;;;;;;;;4861015;29;20125;-58
2022/05/22 05:33:45;;;;;;;6.60;2.60;;;;;;;;;;4860816;29;20026;-58
2022/05/22 05:36:12;;;;;;;5.28;2.80;;;;;;;;;;4860800;29;20037;-63
2022/05/22 05:38:38;;;;;;;6.55;2.40;;;;;;;;;;4860608;29;20056;-58
2022/05/22 05:41:04;;;;;;;3.97;2.53;;;;;;;;;;4861051;29;20041;-58
2022/05/22 05:43:30;;;;;;;4.45;2.58;;;;;;;;;;4861003;29;20029;-58
2022/05/22 05:45:56;;;;;;;5.13;2.53;;;;;;;;;;4860551;29;20057;-67
2022/05/22 05:48:22;;;;;;;6.00;3.35;;;;;;;;;;4861046;29;20033;-67
2022/05/22 05:50:48;;;;;;;9.98;4.30;;;;;;;;;;4860541;29;20034;-58
2022/05/22 05:53:14;;;;;;;8.80;5.13;;;;;;;;;;4860445;29;20047;-59
2022/05/22 05:55:40;;;;;;;7.60;4.47;;;;;;;;;;4860556;29;20034;-60
2022/05/22 05:58:07;;;;;;;6.57;3.25;;;;;;;;;;4860421;29;20041;-57
2022/05/22 06:00:33;;;;;;;5.38;3.15;;;;;;;;;;4860486;29;20035;-58
2022/05/22 06:02:59;;;;;;;7.10;4.72;;;;;;;;;;4842927;29;20477;-58
2022/05/22 06:05:25;;;;;;;5.50;2.85;;;;;;;;;;4860417;29;20121;-58
2022/05/22 06:07:52;;;;;;;5.18;2.88;;;;;;;;;;4860063;29;20049;-59
2022/05/22 06:10:19;;;;;;;6.00;3.17;;;;;;;;;;4860094;29;20037;-59
2022/05/22 06:12:46;;;;;;;3.70;2.00;;;;;;;;;;4860166;29;20058;-59
2022/05/22 06:15:13;;;;;;;3.55;2.13;;;;;;;;;;4859423;29;20109;-59
2022/05/22 06:17:43;;;;;;;6.90;2.80;;;;;;;;;;4859712;29;20117;-60
2022/05/22 06:20:10;;;;;;;4.85;3.42;;;;;;;;;;4859871;29;20028;-60
2022/05/22 06:22:36;;;;;;;4.97;3.10;;;;;;;;;;4859465;29;20073;-59
2022/05/22 06:25:03;;;;;;;8.57;3.10;;;;;;;;;;4859859;29;20060;-58
2022/05/22 06:27:30;;;;;;;7.03;4.50;;;;;;;;;;4859667;29;20120;-58
2022/05/22 06:29:56;;;;;;;6.43;3.22;;;;;;;;;;4859562;29;20041;-58
2022/05/22 06:32:22;;;;;;;5.60;3.15;;;;;;;;;;4859847;29;20044;-59
2022/05/22 06:34:48;;;;;;;7.30;3.30;;;;;;;;;;4859425;29;20045;-66
2022/05/22 06:37:18;;;;;;;7.47;3.80;;;;;;;;;;4859617;29;20039;-59
2022/05/22 06:39:51;;;;;;;7.45;3.67;;;;;;;;;;4859492;29;20038;-59
2022/05/22 06:42:23;;;;;;;5.40;2.95;;;;;;;;;;4859536;29;20029;-60
2022/05/22 06:44:49;;;;;;;;;;;;;;;;;;4860026;29;20094;-58
2022/05/22 06:47:15;;;;;;;4.82;2.92;;;;;;;;;;4859781;29;19920;-60
2022/05/22 06:49:43;;;;;;;4.40;2.53;;;;;;;;;;4859359;29;20094;-59
2022/05/22 06:52:09;;;;;;;5.60;2.70;;;;;;;;;;4859168;29;20097;-59
2022/05/22 06:54:35;;;;;;;4.20;2.70;;;;;;;;;;4859398;29;20022;-60
2022/05/22 06:57:01;;;;;;;6.40;2.95;;;;;;;;;;4859398;29;20033;-60
2022/05/22 06:59:27;;;;;;;4.80;2.60;;;;;;;;;;4859535;29;20021;-64
2022/05/22 07:01:53;;;;;;;6.97;2.67;;;;;;;;;;4859396;29;20041;-60
2022/05/22 07:04:21;;;;;;;6.03;2.60;;;;;;;;;;4859227;29;20113;-59
2022/05/22 07:06:48;;;;;;;5.95;2.50;;;;;;;;;;4859147;29;20029;-58
2022/05/22 07:09:14;;;;;;;3.10;2.20;;;;;;;;;;4859472;29;20082;-59
2022/05/22 07:11:40;;;;;;;5.20;2.45;;;;;;;;;;4859080;29;20037;-60
2022/05/22 07:14:10;;;;;;;5.75;2.20;;;;;;;;;;4858899;29;20025;-64
2022/05/22 07:16:38;;;;;;;5.38;2.65;;;;;;;;;;4854420;29;20060;-61
2022/05/22 07:19:06;;;;;;;6.45;2.45;;;;;;;;;;4876290;29;20547;-69
2022/05/22 07:21:32;;;;;;;6.00;2.42;;;;;;;;;;4877063;29;20053;-58
2022/05/22 07:24:01;;;;;;;8.02;2.90;;;;;;;;;;4876728;29;20036;-59
2022/05/22 07:26:28;;;;;;;6.32;2.55;;;;;;;;;;4876678;29;20052;-58
2022/05/22 07:28:54;;;;;;;8.02;2.60;;;;;;;;;;4876532;29;20060;-59
2022/05/22 07:31:22;;;;;;;7.55;2.65;;;;;;;;;;4873455;29;20039;-72
2022/05/22 07:33:48;;;;;;;5.68;2.40;;;;;;;;;;4874591;29;20041;-60
2022/05/22 07:36:14;;;;;;;4.53;2.40;;;;;;;;;;4877063;29;20033;-59
2022/05/22 07:38:40;;;;;;;12.95;3.13;;;;;;;;;;4876758;29;20025;-62
2022/05/22 07:41:07;;;;;;;6.38;2.40;;;;;;;;;;4876817;29;20116;-60
2022/05/22 07:43:33;;;;;;;9.30;2.65;;;;;;;;;;4876851;29;20033;-60
2022/05/22 07:45:59;;;;;;;6.75;2.88;;;;;;;;;;4877296;29;20037;-59
2022/05/22 07:48:25;;;;;;;14.95;2.90;;;;;;;;;;4877014;29;20033;-59
2022/05/22 07:50:58;;;;;;;9.30;2.90;;;;;;;;;;4877033;29;20025;-59
2022/05/22 07:53:24;;;;;;;11.02;3.03;;;;;;;;;;4876379;29;20040;-73
2022/05/22 07:55:51;;;;;;;4.38;2.28;;;;;;;;;;4877032;29;20035;-59
2022/05/22 07:58:18;;;;;;;7.15;2.30;;;;;;;;;;4876735;29;20040;-61
2022/05/22 08:00:44;;;;;;;5.65;2.22;;;;;;;;;;4877063;29;20048;-58
2022/05/22 08:03:15;;;;;;;7.30;2.70;;;;;;;;;;4876693;29;20040;-61
2022/05/22 08:05:42;;;;;;;3.92;2.72;;;;;;;;;;4876224;29;20036;-59
2022/05/22 08:08:08;;;;;;;4.97;2.33;;;;;;;;;;4877275;29;20033;-57
2022/05/22 08:10:36;;;;;;;9.20;4.63;;;;;;;;;;4876756;29;20375;-58
2022/05/22 08:13:03;;;;;;;6.65;2.78;;;;;;;;;;4876860;29;20069;-58
2022/05/22 08:15:32;;;;;;;13.18;6.07;;;;;;;;;;4876570;29;20100;-58
2022/05/22 08:17:59;;;;;;;7.53;3.33;;;;;;;;;;4876535;29;20385;-58
2022/05/22 08:20:26;;;;;;;12.65;7.93;;;;;;;;;;4872897;29;20036;-58
2022/05/22 08:22:56;;;;;;;7.90;3.50;;;;;;;;;;4861711;29;20041;-65
2022/05/22 08:25:23;;;;;;;19.85;11.02;;;;;;;;;;4857772;29;20073;-68
2022/05/22 08:27:49;;;;;;;20.75;11.82;;;;;;;;;;4857816;29;20037;-58
2022/05/22 08:30:17;;;;;;;4.90;2.70;;;;;;;;;;4857765;29;20077;-57
2022/05/22 08:32:43;;;;;;;8.50;4.32;;;;;;;;;;4857468;29;20042;-58
2022/05/22 08:35:11;;;;;;;6.88;2.20;;;;;;;;;;4857192;29;20033;-59
2022/05/22 08:37:37;;;;;;;11.25;3.55;;;;;;;;;;4859707;29;20116;-62
2022/05/22 08:40:05;;;;;;;36.35;8.25;;;;;;;;;;4861402;29;20033;-60
2022/05/22 08:42:49;;;;;;;22.77;8.02;;;;;;;;;;4844425;29;20376;-58
2022/05/22 08:45:18;;;;;;;51.13;12.20;;;;;;;;;;4860855;29;20036;-58
2022/05/22 08:47:59;;;;;;;52.95;14.50;;;;;;;;;;4861442;29;20041;-58
2022/05/22 08:50:25;;;;;;;36.00;10.77;;;;;;;;;;4861270;29;20600;-70
2022/05/22 08:53:03;;;;;;;44.67;14.40;;;;;;;;;;4861101;29;20041;-71
2022/05/22 09:01:09;;;;;;;13.70;4.03;;;;;;;;;;4861651;29;20070;-61
2022/05/22 09:03:42;;;;;;;4.70;2.28;;;;;;;;;;4861292;29;20440;-58
2022/05/22 09:06:08;;;;;;;31.00;13.57;;;;;;;;;;4861316;29;20081;-57
2022/05/22 09:08:37;;;;;;;26.77;11.27;;;;;;;;;;4861288;29;20108;-61
2022/05/22 09:11:13;;;;;;;5.35;2.40;;;;;;;;;;4861253;29;20101;-60
2022/05/22 09:13:58;;;;;;;2.55;1.40;;;;;;;;;;4861608;29;20049;-60
2022/05/22 09:16:29;;;;;;;39.95;17.33;;;;;;;;;;4860859;29;20065;-59
2022/05/22 09:19:03;;;;;;;28.20;13.50;;;;;;;;;;4861227;29;20077;-58
2022/05/22 09:21:36;;;;;;;22.02;11.77;;;;;;;;;;4861364;29;20086;-61
2022/05/22 09:24:08;;;;;;;16.88;7.18;;;;;;;;;;4860919;29;20026;-65
2022/05/22 09:26:41;;;;;;;13.60;6.73;;;;;;;;;;4861095;29;20044;-58
2022/05/22 09:29:07;;;;;;;13.15;5.68;;;;;;;;;;4861133;29;20029;-59
2022/05/22 09:31:48;;;;;;;19.60;8.95;;;;;;;;;;4860939;29;20037;-58
2022/05/22 09:34:33;;;;;;;14.75;7.00;;;;;;;;;;4860758;29;20494;-60
2022/05/22 09:37:05;;;;;;;16.02;8.50;;;;;;;;;;4860461;29;20386;-60
2022/05/22 09:39:31;;;;;;;14.35;6.32;;;;;;;;;;4860944;29;20032;-57
2022/05/22 09:41:57;;;;;;;9.15;4.35;;;;;;;;;;4860709;29;20038;-61
2022/05/22 09:44:35;;;;;;;9.25;4.85;;;;;;;;;;4860353;29;20522;-60
2022/05/22 09:47:01;;;;;;;1.83;0.95;;;;;;;;;;4860611;29;20042;-59
2022/05/22 09:49:37;;;;;;;8.38;3.90;;;;;;;;;;4859467;29;20436;-58
2022/05/22 09:52:06;;;;;;;4.90;2.28;;;;;;;;;;4860263;29;20062;-59
2022/05/22 09:54:32;;;;;;;7.68;4.78;;;;;;;;;;4860228;29;20105;-58
2022/05/22 09:57:01;;;;;;;7.63;4.45;;;;;;;;;;4860232;29;20054;-59
2022/05/22 09:59:38;;;;;;;6.13;3.85;;;;;;;;;;4860446;29;20065;-66
2022/05/22 10:02:09;;;;;;;4.63;1.85;;;;;;;;;;4859857;29;20042;-58
2022/05/22 10:04:49;;;;;;;4.78;1.63;;;;;;;;;;4859908;29;20479;-58
2022/05/22 10:07:28;;;;;;;2.97;1.60;;;;;;;;;;4859946;29;20041;-59
2022/05/22 10:10:03;;;;;;;8.27;3.67;;;;;;;;;;4859797;29;20574;-63
2022/05/22 10:12:38;;;;;;;3.22;1.50;;;;;;;;;;4859779;29;20164;-60
2022/05/22 10:15:37;;;;;;;5.15;2.55;;;;;;;;;;4859829;29;20049;-63
2022/05/22 10:18:11;;;;;;;4.13;1.30;;;;;;;;;;4766961;30;20131;-62
2022/05/22 10:20:52;;;;;;;5.63;1.50;;;;;;;;;;4766557;30;20046;-60
2022/05/22 10:23:18;;;;;;;3.78;1.90;;;;;;;;;;4766587;30;20040;-60
2022/05/22 10:25:50;;;;;;;5.05;3.05;;;;;;;;;;4766923;30;20567;-61
2022/05/22 10:28:18;;;;;;;4.05;1.85;;;;;;;;;;4766561;30;20501;-69
2022/05/22 10:31:03;;;;;;;3.30;1.38;;;;;;;;;;4766725;30;20413;-58
2022/05/22 10:33:44;;;;;;;5.50;1.77;;;;;;;;;;4766689;30;20051;-60
2022/05/22 10:36:33;;;;;;;4.00;1.90;;;;;;;;;;4766674;30;20111;-59
2022/05/22 10:38:59;;;;;;;4.75;1.40;;;;;;;;;;4766540;30;20428;-58
2022/05/22 10:44:14;;;;;;;2.78;1.40;;;;;;;;;;4766644;30;20134;-58
2022/05/22 10:46:53;;;;;;;3.83;1.40;;;;;;;;;;4766488;30;20561;-58
2022/05/22 10:49:21;;;;;;;4.03;1.30;;;;;;;;;;4766717;30;20181;-62
2022/05/22 10:51:57;;;;;;;5.13;1.77;;;;;;;;;;4766605;30;20079;-65
2022/05/22 10:54:30;;;;;;;1.90;1.20;;;;;;;;;;4824788;29;20847;-59
2022/05/22 10:57:07;;;;;;;3.47;1.20;;;;;;;;;;4823769;29;20038;-69
2022/05/22 10:59:33;;;;;;;2.22;1.30;;;;;;;;;;4838651;29;20041;-59
2022/05/22 11:02:03;;;;;;;2.03;1.30;;;;;;;;;;4838010;29;20102;-59
2022/05/22 11:04:37;;;;;;;2.70;1.15;;;;;;;;;;4838417;29;20061;-66
2022/05/22 11:07:04;;;;;;;4.13;1.40;;;;;;;;;;4838731;29;20055;-61
2022/05/22 11:09:33;;;;;;;3.72;1.30;;;;;;;;;;4838141;29;20053;-60
2022/05/22 11:12:10;;;;;;;4.10;1.73;;;;;;;;;;4838268;29;20050;-58
2022/05/22 11:14:37;;;;;;;4.78;1.27;;;;;;;;;;4837914;29;20129;-59
2022/05/22 11:17:20;;;;;;;4.35;1.60;;;;;;;;;;4857674;29;20045;-58
2022/05/22 11:19:48;;;;;;;3.53;1.67;;;;;;;;;;4858702;29;20030;-59
2022/05/22 11:22:25;;;;;;;2.35;1.55;;;;;;;;;;4858870;29;20192;-59
2022/05/22 11:24:51;;;;;;;2.78;1.48;;;;;;;;;;4858830;29;20033;-58
2022/05/22 11:27:37;;;;;;;2.97;1.50;;;;;;;;;;4858698;29;20041;-58
2022/05/22 11:30:16;;;;;;;4.60;1.90;;;;;;;;;;4765892;30;20281;-59
2022/05/22 11:32:52;;;;;;;4.35;1.58;;;;;;;;;;4765434;30;20056;-60
2022/05/22 11:35:24;;;;;;;6.15;1.75;;;;;;;;;;4766237;30;20079;-59
2022/05/22 11:37:50;;;;;;;;;;;;;;;;;;4766126;30;20114;-61
2022/05/22 11:40:16;;;;;;;3.60;1.73;;;;;;;;;;4765888;29;20082;-58
2022/05/22 11:42:43;;;;;;;6.00;1.58;;;;;;;;;;4765786;30;20039;-58
2022/05/22 11:45:32;;;;;;;4.43;1.77;;;;;;;;;;4765615;30;20039;-59
2022/05/22 11:48:03;;;;;;;3.13;1.27;;;;;;;;;;4766105;30;20496;-59
2022/05/22 11:50:29;;;;;;;3.42;1.30;;;;;;;;;;4765944;30;20523;-64
2022/05/22 11:53:14;;;;;;;2.47;1.40;;;;;;;;;;4765300;30;20121;-58
2022/05/22 11:55:58;;;;;;;4.93;1.48;;;;;;;;;;4765799;30;20197;-58
2022/05/22 11:58:37;;;;;;;3.00;1.55;;;;;;;;;;4765745;30;20035;-58
2022/05/22 12:01:03;;;;;;;2.90;1.40;;;;;;;;;;4765741;30;20127;-65
2022/05/22 12:03:46;;;;;;;2.72;1.25;;;;;;;;;;4765807;30;20032;-59
2022/05/22 12:06:20;;;;;;;3.50;1.30;;;;;;;;;;4775313;29;20070;-59
2022/05/22 12:09:05;;;;;;;3.55;1.33;;;;;;;;;;4858660;29;20033;-59
2022/05/22 12:11:49;;;;;;;4.82;1.80;;;;;;;;;;4858969;29;20041;-58
2022/05/22 12:14:34;;;;;;;5.72;2.13;;;;;;;;;;4862121;29;20089;-58
2022/05/22 12:17:15;;;;;;;3.90;1.70;;;;;;;;;;4862317;29;20045;-59
2022/05/22 12:19:55;;;;;;;3.75;1.10;;;;;;;;;;4862017;29;20065;-63
2022/05/22 12:23:08;;;;;;;2.67;1.38;;;;;;;;;;4861652;29;20439;-58
2022/05/22 12:25:17;;;;;;;2.90;1.60;;;;;;;;;;4854239;29;20133;-58
2022/05/22 12:27:43;;;;;;;3.25;1.33;;;;;;;;;;4861956;29;20026;-58
2022/05/22 12:30:09;;;;;;;2.65;1.40;;;;;;;;;;4861552;29;20399;-58
2022/05/22 12:32:40;;;;;;;3.80;1.50;;;;;;;;;;4861777;29;20045;-58
2022/05/22 12:35:07;;;;;;;2.50;1.58;;;;;;;;;;4860927;29;20058;-60
2022/05/22 12:37:36;;;;;;;3.95;1.60;;;;;;;;;;4860964;29;20034;-58
2022/05/22 12:40:08;;;;;;;3.72;1.45;;;;;;;;;;4861477;29;20026;-59
2022/05/22 12:42:36;;;;;;;;;;;;;;;;;;4862104;29;20041;-58
2022/05/22 12:45:02;;;;;;;3.63;1.33;;;;;;;;;;4861317;29;19919;-69
2022/05/22 12:47:43;;;;;;;2.85;1.08;;;;;;;;;;4861743;29;20496;-59
2022/05/22 12:50:10;;;;;;;3.35;1.30;;;;;;;;;;4861382;29;20025;-61
2022/05/22 12:52:39;;;;;;;3.88;1.60;;;;;;;;;;4861439;29;20597;-59
2022/05/22 12:55:41;;;;;;;4.40;1.65;;;;;;;;;;4861336;29;20090;-60
2022/05/22 12:58:07;;;;;;;2.80;1.25;;;;;;;;;;4768235;30;20136;-59
2022/05/22 13:00:36;;;;;;;2.30;1.33;;;;;;;;;;4768535;30;20062;-58
2022/05/22 13:03:11;;;;;;;2.42;1.40;;;;;;;;;;4768369;30;20031;-62
2022/05/22 13:05:38;;;;;;;2.75;1.25;;;;;;;;;;4768356;30;20105;-58
2022/05/22 13:08:14;;;;;;;3.30;1.10;;;;;;;;;;4767832;30;20039;-58
2022/05/22 13:10:45;;;;;;;3.50;1.70;;;;;;;;;;4768060;30;20134;-60
2022/05/22 13:13:14;;;;;;;2.72;1.30;;;;;;;;;;4767569;30;20106;-58
2022/05/22 13:15:59;;;;;;;4.43;1.50;;;;;;;;;;4767009;30;20129;-57
2022/05/22 13:18:25;;;;;;;2.95;1.70;;;;;;;;;;4767515;30;20096;-56
2022/05/22 13:20:53;;;;;;;6.38;1.30;;;;;;;;;;4767572;30;20507;-57
2022/05/22 13:23:21;;;;;;;7.93;1.30;;;;;;;;;;4766119;30;20028;-62
2022/05/22 13:25:49;;;;;;;2.90;1.17;;;;;;;;;;4767837;30;20060;-57
2022/05/22 13:28:38;;;;;;;3.08;1.65;;;;;;;;;;4785249;30;20516;-58
2022/05/22 13:31:08;;;;;;;2.70;1.35;;;;;;;;;;4790549;29;20060;-62
2022/05/22 13:33:44;;;;;;;4.82;1.42;;;;;;;;;;4858069;29;20049;-57
2022/05/22 13:36:31;;;;;;;2.42;1.35;;;;;;;;;;4856814;29;20038;-60
2022/05/22 13:38:58;;;;;;;3.85;1.27;;;;;;;;;;4847764;29;20061;-62
2022/05/22 13:41:42;;;;;;;4.03;1.60;;;;;;;;;;4846143;29;20182;-61
2022/05/22 13:44:27;;;;;;;3.00;1.35;;;;;;;;;;4854543;29;20046;-59
2022/05/22 13:47:11;;;;;;;5.47;1.25;;;;;;;;;;4857994;29;20526;-59
2022/05/22 13:49:49;;;;;;;4.82;1.30;;;;;;;;;;4857696;29;20459;-61
2022/05/22 13:52:37;;;;;;;4.32;1.40;;;;;;;;;;4857754;29;20192;-59
2022/05/22 13:55:08;;;;;;;4.65;1.30;;;;;;;;;;4858008;29;20048;-60
2022/05/22 13:57:35;;;;;;;4.65;1.48;;;;;;;;;;4857923;29;20448;-57
2022/05/22 14:00:07;;;;;;;5.63;1.45;;;;;;;;;;4857764;29;20037;-59
2022/05/22 14:02:53;;;;;;;4.82;1.77;;;;;;;;;;4857750;29;20091;-59
2022/05/22 14:05:20;;;;;;;5.15;1.60;;;;;;;;;;4856968;29;20601;-59
2022/05/22 14:07:51;;;;;;;4.63;1.70;;;;;;;;;;4865318;29;20045;-59
2022/05/22 14:10:27;;;;;;;5.97;1.55;;;;;;;;;;4878360;29;20039;-61
2022/05/22 14:12:53;;;;;;;3.83;1.90;;;;;;;;;;4878800;29;20349;-59
2022/05/22 14:15:23;;;;;;;2.97;1.80;;;;;;;;;;4877977;29;20064;-58
2022/05/22 14:17:50;;;;;;;5.45;2.28;;;;;;;;;;4878705;29;20037;-60
2022/05/22 14:20:18;;;;;;;4.10;1.70;;;;;;;;;;4878929;29;20108;-59
2022/05/22 14:22:46;;;;;;;3.33;1.40;;;;;;;;;;4878306;29;20418;-60
2022/05/22 14:25:14;;;;;;;2.10;1.50;;;;;;;;;;4878203;29;20033;-59
2022/05/22 14:27:48;;;;;;;2.92;1.42;;;;;;;;;;4878338;29;20040;-59
2022/05/22 14:30:22;;;;;;;3.05;1.50;;;;;;;;;;4877946;29;20029;-58
2022/05/22 14:32:55;;;;;;;4.05;1.30;;;;;;;;;;4877856;29;20037;-59
2022/05/22 14:35:30;;;;;;;5.90;1.98;;;;;;;;;;4877560;29;20021;-58
2022/05/22 14:37:58;;;;;;;6.10;2.50;;;;;;;;;;4877548;29;20029;-65
2022/05/22 14:40:29;;;;;;;8.45;2.58;;;;;;;;;;4877638;29;20037;-59
2022/05/22 14:42:57;;;;;;;11.77;2.75;;;;;;;;;;4878045;29;20033;-67
2022/05/22 14:45:26;;;;;;;3.80;1.95;;;;;;;;;;4877593;29;20539;-65
2022/05/22 14:47:52;;;;;;;10.05;2.78;;;;;;;;;;4878103;29;20123;-72
2022/05/22 14:50:19;;;;;;;7.05;3.70;;;;;;;;;;4877361;29;20021;-64
2022/05/22 14:52:48;;;;;;;7.22;3.15;;;;;;;;;;4877452;29;20041;-69
2022/05/22 14:55:14;;;;;;;5.05;2.30;;;;;;;;;;4877535;29;20418;-67
2022/05/22 14:57:46;;;;;;;7.15;3.10;;;;;;;;;;4877909;29;20037;-70
2022/05/22 15:00:18;;;;;;;4.95;1.90;;;;;;;;;;4877718;29;20684;-69
2022/05/22 15:02:47;;;;;;;6.90;2.15;;;;;;;;;;4877085;29;20021;-60
2022/05/22 15:05:20;;;;;;;5.10;1.83;;;;;;;;;;4877738;29;20485;-65
2022/05/22 15:07:54;;;;;;;4.95;1.80;;;;;;;;;;4877506;29;20506;-60